Time;durP1;ratioP1;P1;durP2;ratioP2;P2;SDS_P1;SDS_P2;PMS_P1;PMS_P2;Temp;Humidity;BMP_temperature;BMP_pressure;BME280_temperature;BME280_humidity;BME280_pressure;Samples;Min_cycle;Max_cycle;Signal;HPM_P1;HPM_P2
2022/06/26 00:01:41;;;;;;;21.63;4.88;;;27.40;60.70;;;;;;4953836;28;20520;-71
2022/06/26 00:04:07;;;;;;;15.15;4.20;;;27.40;60.70;;;;;;4955426;28;20023;-69
2022/06/26 00:06:32;;;;;;;16.77;4.80;;;27.40;60.70;;;;;;4955191;29;20377;-68
2022/06/26 00:08:58;;;;;;;20.17;4.70;;;27.40;60.80;;;;;;4955206;29;20377;-70
2022/06/26 00:11:24;;;;;;;19.60;5.80;;;27.40;61.00;;;;;;4955134;28;20027;-70
2022/06/26 00:13:50;;;;;;;17.63;4.97;;;27.30;60.90;;;;;;4953769;28;20027;-69
2022/06/26 00:16:16;;;;;;;15.82;4.57;;;27.30;61.20;;;;;;4955002;28;20023;-69
2022/06/26 00:18:42;;;;;;;17.35;4.70;;;27.20;61.10;;;;;;4954928;28;20122;-70
2022/06/26 00:21:08;;;;;;;17.90;4.80;;;27.20;61.10;;;;;;4955074;28;20114;-68
2022/06/26 00:23:34;;;;;;;16.08;5.43;;;27.10;61.00;;;;;;4955031;28;20027;-69
2022/06/26 00:26:01;;;;;;;20.80;4.95;;;27.10;61.20;;;;;;4955049;28;20034;-71
2022/06/26 00:28:27;;;;;;;15.23;4.78;;;27.10;61.10;;;;;;4954948;28;20058;-69
2022/06/26 00:30:53;;;;;;;17.52;4.75;;;27.10;61.10;;;;;;4955151;28;20015;-70
2022/06/26 00:33:18;;;;;;;14.27;4.57;;;27.10;61.30;;;;;;4955001;29;20081;-70
2022/06/26 00:35:44;;;;;;;17.58;4.80;;;27.00;61.20;;;;;;4954860;29;20417;-72
2022/06/26 00:38:10;;;;;;;14.48;4.50;;;26.90;61.50;;;;;;4954915;29;20035;-70
2022/06/26 00:40:35;;;;;;;21.63;5.05;;;26.90;61.70;;;;;;4954887;28;20102;-70
2022/06/26 00:43:01;;;;;;;18.92;4.90;;;26.90;61.70;;;;;;4954886;29;20070;-71
2022/06/26 00:45:27;;;;;;;26.05;5.28;;;26.90;61.90;;;;;;4953475;28;20031;-69
2022/06/26 00:47:52;;;;;;;23.35;5.18;;;26.90;61.70;;;;;;4954743;29;20059;-69
2022/06/26 00:50:18;;;;;;;18.40;4.38;;;27.00;61.80;;;;;;4954827;28;20098;-69
2022/06/26 00:52:45;;;;;;;16.73;4.47;;;26.90;61.90;;;;;;4954771;29;20065;-70
2022/06/26 00:55:11;;;;;;;15.65;4.57;;;26.90;62.00;;;;;;4955564;28;20488;-70
2022/06/26 00:57:37;;;;;;;15.63;5.72;;;26.90;61.90;;;;;;4958580;28;20039;-69
2022/06/26 01:00:06;;;;;;;18.48;4.93;;;26.90;62.00;;;;;;4958527;28;20495;-70
2022/06/26 01:02:32;;;;;;;17.38;3.97;;;26.90;62.30;;;;;;4958550;28;20106;-72
2022/06/26 01:04:58;;;;;;;15.73;4.53;;;26.80;62.80;;;;;;4958709;28;20058;-69
2022/06/26 01:07:25;;;;;;;17.33;4.75;;;26.80;62.20;;;;;;4958549;29;20027;-70
2022/06/26 01:09:51;;;;;;;21.08;5.30;;;26.80;62.30;;;;;;4958478;28;20110;-69
2022/06/26 01:12:17;;;;;;;19.13;4.60;;;26.70;62.60;;;;;;4958470;28;20054;-70
2022/06/26 01:14:43;;;;;;;17.55;4.45;;;26.60;62.50;;;;;;4956931;28;20118;-70
2022/06/26 01:17:10;;;;;;;21.75;4.28;;;26.60;62.90;;;;;;4957998;29;20042;-69
2022/06/26 01:19:37;;;;;;;19.30;4.50;;;26.60;62.90;;;;;;4958343;28;20027;-71
2022/06/26 01:22:03;;;;;;;15.40;4.57;;;26.60;63.00;;;;;;4958260;29;20027;-69
2022/06/26 01:24:29;;;;;;;19.75;4.60;;;26.50;63.00;;;;;;4958168;28;20039;-70
2022/06/26 01:26:54;;;;;;;15.65;4.50;;;26.50;63.00;;;;;;4957889;28;20469;-69
2022/06/26 01:29:21;;;;;;;21.70;4.72;;;26.40;63.30;;;;;;4958071;28;20024;-68
2022/06/26 01:31:47;;;;;;;17.08;4.60;;;26.40;63.40;;;;;;4958197;29;20023;-69
2022/06/26 01:34:13;;;;;;;14.93;4.80;;;26.40;63.50;;;;;;4958069;28;20051;-71
2022/06/26 01:36:38;;;;;;;12.90;4.45;;;26.40;63.60;;;;;;4957648;29;20081;-71
2022/06/26 01:39:05;;;;;;;14.80;4.50;;;26.30;63.70;;;;;;4957578;28;20058;-71
2022/06/26 01:41:31;;;;;;;14.35;4.43;;;26.30;63.70;;;;;;4957616;28;20035;-71
2022/06/26 01:43:56;;;;;;;18.13;5.03;;;26.30;64.00;;;;;;4957437;28;20046;-70
2022/06/26 01:46:24;;;;;;;15.23;4.07;;;26.30;64.00;;;;;;4957723;28;20071;-70
2022/06/26 01:48:50;;;;;;;19.42;4.50;;;26.20;64.00;;;;;;4957517;28;20545;-70
2022/06/26 01:51:16;;;;;;;14.60;4.32;;;26.10;64.10;;;;;;4957179;28;20031;-71
2022/06/26 01:53:42;;;;;;;15.43;4.30;;;26.10;64.20;;;;;;4957559;28;20481;-70
2022/06/26 01:56:08;;;;;;;15.55;4.15;;;26.20;64.20;;;;;;4957454;28;20035;-69
2022/06/26 01:58:34;;;;;;;14.63;4.60;;;26.10;64.20;;;;;;4957506;29;20038;-72
2022/06/26 02:01:01;;;;;;;21.35;4.63;;;26.10;64.30;;;;;;4957432;28;20035;-70
2022/06/26 02:03:27;;;;;;;14.20;4.00;;;26.10;64.50;;;;;;4957415;29;20023;-69
2022/06/26 02:05:53;;;;;;;14.18;4.30;;;26.00;64.70;;;;;;4957359;28;20567;-72
2022/06/26 02:08:19;;;;;;;13.68;4.35;;;26.00;64.80;;;;;;4956012;28;20062;-74
2022/06/26 02:13:36;;;;;;;18.45;4.60;;;25.90;64.90;;;;;;4957405;29;20516;-74
2022/06/26 02:16:05;;;;;;;16.08;4.40;;;25.80;65.40;;;;;;4957410;28;20488;-71
2022/06/26 02:18:31;;;;;;;16.67;4.05;;;25.80;65.30;;;;;;4957250;28;20378;-69
2022/06/26 02:20:57;;;;;;;16.15;4.20;;;25.80;65.10;;;;;;4956833;28;20062;-71
2022/06/26 02:23:23;;;;;;;12.55;4.28;;;25.80;65.40;;;;;;4957074;28;20035;-70
2022/06/26 02:25:49;;;;;;;14.77;4.63;;;25.70;65.30;;;;;;4955692;29;20041;-70
2022/06/26 02:28:16;;;;;;;11.82;4.43;;;25.80;65.20;;;;;;4957039;28;20106;-70
2022/06/26 02:30:42;;;;;;;14.90;3.80;;;25.80;65.20;;;;;;4956596;28;20106;-70
2022/06/26 02:33:08;;;;;;;15.25;4.40;;;25.80;65.30;;;;;;4956653;29;20127;-72
2022/06/26 02:35:34;;;;;;;13.35;3.92;;;25.80;65.40;;;;;;4956620;28;20114;-72
2022/06/26 02:37:59;;;;;;;16.05;4.32;;;25.70;65.20;;;;;;4956552;29;20034;-71
2022/06/26 02:40:27;;;;;;;12.23;4.25;;;25.70;65.10;;;;;;4956580;28;20442;-70
2022/06/26 02:42:54;;;;;;;15.50;4.43;;;25.70;65.30;;;;;;4956924;29;20028;-72
2022/06/26 02:45:20;;;;;;;13.15;4.13;;;25.70;65.50;;;;;;4956599;29;20539;-71
2022/06/26 02:47:46;;;;;;;17.35;4.13;;;25.60;65.40;;;;;;4956709;28;20019;-70
2022/06/26 02:50:12;;;;;;;17.60;4.35;;;25.60;65.50;;;;;;4956506;28;20030;-73
2022/06/26 02:52:38;;;;;;;14.07;3.85;;;25.60;65.40;;;;;;4956512;28;20159;-71
2022/06/26 02:55:05;;;;;;;19.50;4.85;;;25.60;65.40;;;;;;4956416;29;20038;-71
2022/06/26 02:57:31;;;;;;;16.48;4.28;;;25.60;65.20;;;;;;4956377;28;20477;-71
2022/06/26 02:59:57;;;;;;;15.52;4.03;;;25.60;65.30;;;;;;4956222;28;20030;-73
2022/06/26 03:02:24;;;;;;;13.80;4.32;;;25.50;65.30;;;;;;4956133;29;20027;-71
2022/06/26 03:04:53;;;;;;;15.00;4.07;;;25.50;65.30;;;;;;4956324;28;20054;-71
2022/06/26 03:07:19;;;;;;;22.52;3.97;;;25.50;65.10;;;;;;4956230;29;20030;-72
2022/06/26 03:09:45;;;;;;;12.45;4.05;;;25.50;65.30;;;;;;4956162;28;20034;-72
2022/06/26 03:12:11;;;;;;;16.48;4.07;;;25.50;65.20;;;;;;4956145;28;20031;-73
2022/06/26 03:14:37;;;;;;;13.70;3.97;;;25.50;65.40;;;;;;4956054;29;20027;-72
2022/06/26 03:17:03;;;;;;;15.52;4.35;;;25.40;65.80;;;;;;4955832;28;20441;-69
2022/06/26 03:19:29;;;;;;;20.08;4.38;;;25.30;66.10;;;;;;4955513;28;20453;-70
2022/06/26 03:21:55;;;;;;;12.45;4.28;;;25.30;66.30;;;;;;4956019;29;20054;-70
2022/06/26 03:24:21;;;;;;;12.57;3.50;;;25.30;66.50;;;;;;4955891;29;20030;-70
2022/06/26 03:26:47;;;;;;;18.30;4.50;;;25.20;66.40;;;;;;4956126;29;20373;-72
2022/06/26 03:29:13;;;;;;;14.20;3.90;;;25.20;66.60;;;;;;4956114;28;20019;-72
2022/06/26 03:31:39;;;;;;;14.88;4.30;;;25.20;66.30;;;;;;4955764;28;20027;-73
2022/06/26 03:34:04;;;;;;;18.48;4.50;;;25.20;66.60;;;;;;4955666;28;20469;-73
2022/06/26 03:36:30;;;;;;;14.68;4.22;;;25.30;66.40;;;;;;4955587;29;20118;-72
2022/06/26 03:38:56;;;;;;;11.18;4.10;;;25.30;66.50;;;;;;4955786;28;20019;-75
2022/06/26 03:41:23;;;;;;;17.45;4.40;;;25.30;66.40;;;;;;4955561;28;20039;-75
2022/06/26 03:43:49;;;;;;;17.02;3.90;;;25.30;66.60;;;;;;4955761;28;20481;-73
2022/06/26 03:46:15;;;;;;;14.95;3.83;;;25.20;66.60;;;;;;4955655;28;20031;-74
2022/06/26 03:48:41;;;;;;;14.77;4.10;;;25.20;66.70;;;;;;4955661;28;20026;-75
2022/06/26 03:51:08;;;;;;;15.10;4.65;;;25.10;66.90;;;;;;4954030;28;20470;-74
2022/06/26 03:53:34;;;;;;;15.60;4.28;;;25.10;67.00;;;;;;4955418;29;20030;-73
2022/06/26 03:56:01;;;;;;;16.25;4.40;;;25.10;67.00;;;;;;4955364;29;20031;-73
2022/06/26 03:58:27;;;;;;;14.57;4.40;;;25.10;67.00;;;;;;4955543;28;20473;-72
2022/06/26 04:00:53;;;;;;;13.98;4.22;;;25.10;67.00;;;;;;4955091;28;20027;-75
2022/06/26 04:03:20;;;;;;;18.55;4.30;;;25.10;66.90;;;;;;4955335;28;20027;-75
2022/06/26 04:05:46;;;;;;;15.23;4.10;;;25.20;66.90;;;;;;4955307;28;20035;-71
2022/06/26 04:08:12;;;;;;;14.32;3.95;;;25.20;66.70;;;;;;4954994;29;20389;-71
2022/06/26 04:10:38;;;;;;;12.73;3.92;;;25.20;66.60;;;;;;4955039;28;20035;-73
2022/06/26 04:13:06;;;;;;;16.98;4.20;;;25.20;66.50;;;;;;4955312;28;20030;-70
2022/06/26 04:15:34;;;;;;;15.45;4.60;;;25.30;66.40;;;;;;4955048;28;20034;-76
2022/06/26 04:18:00;;;;;;;15.70;3.47;;;25.30;66.00;;;;;;4955152;28;20107;-71
2022/06/26 04:20:26;;;;;;;15.05;4.10;;;25.30;66.00;;;;;;4955153;28;20098;-71
2022/06/26 04:23:18;;;;;;;20.08;4.82;;;25.30;66.10;;;;;;4955087;28;20034;-71
2022/06/26 04:25:44;;;;;;;16.48;4.10;;;25.40;66.00;;;;;;4954025;28;20055;-70
2022/06/26 04:28:10;;;;;;;15.57;4.00;;;25.40;65.60;;;;;;4953771;28;20474;-72
2022/06/26 04:30:36;;;;;;;15.38;4.50;;;25.40;65.40;;;;;;4956341;28;20020;-69
2022/06/26 04:33:02;;;;;;;16.85;4.57;;;25.50;65.50;;;;;;4959223;28;20031;-70
2022/06/26 04:35:28;;;;;;;13.25;3.85;;;25.50;65.30;;;;;;4959081;29;20030;-71
2022/06/26 04:37:53;;;;;;;19.02;4.20;;;25.50;65.20;;;;;;4959200;28;20045;-69
2022/06/26 04:40:19;;;;;;;16.13;3.85;;;25.50;65.10;;;;;;4957975;28;20393;-72
2022/06/26 04:42:45;;;;;;;14.15;3.50;;;25.50;64.70;;;;;;4958678;29;20031;-70
2022/06/26 04:45:11;;;;;;;16.42;3.72;;;25.50;64.50;;;;;;4959018;28;20377;-71
2022/06/26 04:47:37;;;;;;;15.73;4.30;;;25.50;64.40;;;;;;4958808;29;20027;-71
2022/06/26 04:50:04;;;;;;;12.38;3.50;;;25.50;64.50;;;;;;4958801;28;20028;-71
2022/06/26 04:52:29;;;;;;;16.60;3.88;;;25.60;64.30;;;;;;4958476;28;20110;-70
2022/06/26 04:54:55;;;;;;;15.63;3.78;;;25.60;64.10;;;;;;4958622;28;20033;-70
2022/06/26 04:57:22;;;;;;;14.43;4.22;;;25.60;63.90;;;;;;4958648;29;20389;-70
2022/06/26 04:59:48;;;;;;;17.15;4.28;;;25.60;63.90;;;;;;4958506;28;20074;-71
2022/06/26 05:02:14;;;;;;;14.88;3.60;;;25.70;63.60;;;;;;4958541;28;20066;-73
2022/06/26 05:04:39;;;;;;;14.23;3.75;;;25.70;63.30;;;;;;4958481;28;20102;-70
2022/06/26 05:07:05;;;;;;;13.10;4.30;;;25.80;63.00;;;;;;4958566;28;20027;-69
2022/06/26 05:09:31;;;;;;;18.80;3.53;;;25.90;62.80;;;;;;4958132;28;20016;-69
2022/06/26 05:11:58;;;;;;;14.93;4.13;;;26.00;62.40;;;;;;4958588;28;20038;-70
2022/06/26 05:14:24;;;;;;;12.57;3.60;;;26.20;61.80;;;;;;4956916;29;20054;-71
2022/06/26 05:16:50;;;;;;;12.77;3.58;;;26.30;61.30;;;;;;4958246;28;20043;-71
2022/06/26 05:19:16;;;;;;;14.85;4.25;;;26.50;60.70;;;;;;4958318;28;20031;-72
2022/06/26 05:21:42;;;;;;;23.25;3.83;;;26.70;60.00;;;;;;4958159;28;20031;-70
2022/06/26 05:24:08;;;;;;;13.25;3.35;;;26.90;59.40;;;;;;4958213;28;20058;-70
2022/06/26 05:26:34;;;;;;;14.70;3.67;;;27.30;58.30;;;;;;4958155;28;20027;-70
2022/06/26 05:29:00;;;;;;;14.40;3.88;;;27.60;57.10;;;;;;4957672;29;20034;-71
2022/06/26 05:31:26;;;;;;;14.88;3.40;;;27.90;56.30;;;;;;4957885;28;20027;-69
2022/06/26 05:33:52;;;;;;;17.67;4.05;;;28.20;55.50;;;;;;4958105;29;20031;-70
2022/06/26 05:36:17;;;;;;;14.77;3.42;;;28.50;54.80;;;;;;4957991;28;20086;-71
2022/06/26 05:38:43;;;;;;;11.15;3.28;;;28.70;54.00;;;;;;4957792;28;20035;-70
2022/06/26 05:41:09;;;;;;;16.60;3.85;;;28.80;53.40;;;;;;4957255;28;20042;-70
2022/06/26 05:43:35;;;;;;;12.95;3.53;;;29.00;52.80;;;;;;4957723;28;20413;-70
2022/06/26 05:46:01;;;;;;;16.17;3.90;;;29.30;52.00;;;;;;4958197;28;20109;-69
2022/06/26 05:48:28;;;;;;;13.00;4.13;;;29.60;51.80;;;;;;4957784;29;20114;-70
2022/06/26 05:50:54;;;;;;;14.93;3.42;;;29.90;51.30;;;;;;4957493;28;20552;-70
2022/06/26 05:53:22;;;;;;;16.45;3.35;;;30.10;50.90;;;;;;4968052;28;20051;-72
2022/06/26 05:55:48;;;;;;;19.80;4.55;;;30.30;50.40;;;;;;4959420;28;20060;-71
2022/06/26 05:58:14;;;;;;;11.55;3.17;;;30.60;49.80;;;;;;4957544;28;20114;-71
2022/06/26 06:00:40;;;;;;;14.20;3.75;;;30.70;49.90;;;;;;4956170;28;20062;-71
2022/06/26 06:03:06;;;;;;;13.73;3.20;;;30.80;49.30;;;;;;4956109;29;20035;-71
2022/06/26 06:05:32;;;;;;;12.07;4.07;;;31.00;49.10;;;;;;4957275;28;20020;-71
2022/06/26 06:07:58;;;;;;;13.88;3.90;;;31.10;48.90;;;;;;4957209;28;20027;-73
2022/06/26 06:10:25;;;;;;;13.98;3.58;;;31.30;48.50;;;;;;4957232;28;20146;-70
2022/06/26 06:12:51;;;;;;;17.48;4.07;;;31.60;48.30;;;;;;4957101;28;20059;-69
2022/06/26 06:15:18;;;;;;;18.08;3.95;;;31.70;47.90;;;;;;4957101;28;20020;-73
2022/06/26 06:17:44;;;;;;;17.20;3.45;;;31.90;47.30;;;;;;4957148;28;20050;-73
2022/06/26 06:20:12;;;;;;;14.55;3.45;;;32.00;47.00;;;;;;4957075;28;20035;-70
2022/06/26 06:22:44;;;;;;;15.68;4.45;;;32.10;46.50;;;;;;4956734;28;20073;-71
2022/06/26 06:25:11;;;;;;;15.27;3.77;;;32.30;46.60;;;;;;4957353;28;20437;-75
2022/06/26 06:27:37;;;;;;;13.20;4.18;;;32.30;46.00;;;;;;4956973;28;20103;-72
2022/06/26 06:30:05;;;;;;;11.63;3.83;;;32.30;46.10;;;;;;4956734;28;20026;-71
2022/06/26 06:32:31;;;;;;;16.88;4.03;;;32.30;45.60;;;;;;4956773;28;20055;-71
2022/06/26 06:34:56;;;;;;;13.35;3.47;;;32.50;45.70;;;;;;4971578;28;20023;-72
2022/06/26 06:37:22;;;;;;;16.80;4.22;;;32.50;45.70;;;;;;4956827;28;20046;-73
2022/06/26 06:39:48;;;;;;;22.15;3.83;;;32.40;45.50;;;;;;4956718;28;20027;-72
2022/06/26 06:42:14;;;;;;;13.57;3.67;;;32.40;45.50;;;;;;4956564;28;20035;-72
2022/06/26 06:44:40;;;;;;;18.20;4.45;;;32.50;45.30;;;;;;4956624;28;20030;-72
2022/06/26 06:47:06;;;;;;;14.90;4.70;;;32.60;45.30;;;;;;4956817;28;20054;-72
2022/06/26 06:49:32;;;;;;;17.80;3.70;;;32.80;44.80;;;;;;4956570;28;20162;-72
2022/06/26 06:51:57;;;;;;;15.40;3.70;;;32.80;44.90;;;;;;4956788;28;20079;-73
2022/06/26 06:54:24;;;;;;;15.25;3.95;;;32.90;44.50;;;;;;4955886;28;20031;-73
2022/06/26 06:56:49;;;;;;;15.50;4.03;;;32.80;44.50;;;;;;4956467;28;20098;-74
2022/06/26 06:59:15;;;;;;;13.50;3.67;;;32.90;44.30;;;;;;4956387;28;20416;-71
2022/06/26 07:01:41;;;;;;;13.50;3.70;;;32.90;44.30;;;;;;4966995;28;20146;-70
2022/06/26 07:04:07;;;;;;;14.25;3.97;;;33.00;43.90;;;;;;4975498;28;20049;-72
2022/06/26 07:06:33;;;;;;;13.43;3.95;;;33.00;44.00;;;;;;4975494;28;20073;-71
2022/06/26 07:08:59;;;;;;;16.23;4.32;;;33.00;43.80;;;;;;4975623;28;20027;-72
2022/06/26 07:11:24;;;;;;;17.48;4.25;;;33.10;43.70;;;;;;4975597;28;20495;-71
2022/06/26 07:13:50;;;;;;;15.57;3.88;;;33.20;43.80;;;;;;4975429;28;20030;-72
2022/06/26 07:16:16;;;;;;;15.07;3.92;;;33.20;43.40;;;;;;4975299;28;20023;-71
2022/06/26 07:18:42;;;;;;;13.68;3.45;;;33.30;43.30;;;;;;4973908;28;20022;-73
2022/06/26 07:21:08;;;;;;;12.95;3.42;;;33.50;43.30;;;;;;4974961;28;20422;-72
2022/06/26 07:23:35;;;;;;;19.15;4.38;;;33.50;42.90;;;;;;4974879;28;20188;-73
2022/06/26 07:26:02;;;;;;;10.95;3.17;;;33.60;43.20;;;;;;4974871;28;20503;-72
2022/06/26 07:28:27;;;;;;;20.05;4.43;;;33.70;42.80;;;;;;4974971;28;20074;-71
2022/06/26 07:30:53;;;;;;;17.25;4.50;;;33.90;42.70;;;;;;4975138;28;20054;-71
2022/06/26 07:36:04;;;;;;;16.20;4.10;;;33.80;42.70;;;;;;4975113;28;20081;-74
2022/06/26 07:38:30;;;;;;;14.02;3.90;;;33.90;42.40;;;;;;4973568;28;20039;-73
2022/06/26 07:40:56;;;;;;;18.13;4.88;;;33.90;42.50;;;;;;4974838;28;20030;-74
2022/06/26 07:43:22;;;;;;;18.50;4.50;;;33.90;42.50;;;;;;4974721;28;20027;-74
2022/06/26 07:45:49;;;;;;;16.83;4.28;;;33.90;42.60;;;;;;4974359;28;20066;-72
2022/06/26 07:48:15;;;;;;;14.35;4.03;;;33.90;42.70;;;;;;4972016;28;20042;-71
2022/06/26 07:50:41;;;;;;;15.60;4.50;;;34.00;42.60;;;;;;4973112;28;20027;-75
2022/06/26 07:53:06;;;;;;;15.65;3.60;;;34.00;42.50;;;;;;4974279;28;20058;-73
2022/06/26 07:55:32;;;;;;;17.40;4.45;;;33.90;42.50;;;;;;4974266;28;20027;-75
2022/06/26 07:57:58;;;;;;;18.55;4.07;;;33.90;42.60;;;;;;4974337;28;20161;-71
2022/06/26 08:00:24;;;;;;;13.90;4.20;;;33.90;42.70;;;;;;4974268;28;20049;-79
2022/06/26 08:02:50;;;;;;;20.30;4.70;;;33.90;42.70;;;;;;4976714;28;20034;-78
2022/06/26 08:05:16;;;;;;;16.63;4.10;;;33.80;42.80;;;;;;4970113;28;20082;-76
2022/06/26 08:07:41;;;;;;;15.23;4.20;;;33.80;42.80;;;;;;4978128;28;20417;-77
2022/06/26 08:10:07;;;;;;;13.52;3.75;;;33.80;42.80;;;;;;4974683;28;20027;-77
2022/06/26 08:12:33;;;;;;;17.33;4.03;;;33.80;43.20;;;;;;4972806;28;20105;-77
2022/06/26 08:14:59;;;;;;;11.68;3.55;;;33.90;43.00;;;;;;4973985;28;20020;-77
2022/06/26 08:17:25;;;;;;;11.70;3.67;;;33.90;42.80;;;;;;4974121;28;20039;-76
2022/06/26 08:19:50;;;;;;;12.73;3.60;;;33.90;43.00;;;;;;4974063;28;20158;-78
2022/06/26 08:22:16;;;;;;;13.90;4.13;;;33.90;42.70;;;;;;4974120;28;20054;-79
2022/06/26 08:24:42;;;;;;;18.45;4.60;;;33.90;43.60;;;;;;4972792;28;20015;-79
2022/06/26 08:27:11;;;;;;;13.15;3.70;;;33.90;42.80;;;;;;4974136;28;20030;-75
2022/06/26 08:29:37;;;;;;;12.80;3.90;;;33.80;42.70;;;;;;4973756;28;20027;-77
2022/06/26 08:32:04;;;;;;;19.70;3.95;;;33.80;42.50;;;;;;4973857;28;20380;-75
2022/06/26 08:34:30;;;;;;;12.70;3.67;;;33.70;42.50;;;;;;4973891;28;20480;-74
2022/06/26 08:36:56;;;;;;;14.48;4.28;;;33.70;42.50;;;;;;4973801;28;20127;-77
2022/06/26 08:39:23;;;;;;;14.20;3.33;;;33.60;42.40;;;;;;4973132;28;20019;-75
2022/06/26 08:41:52;;;;;;;12.57;3.65;;;33.60;42.20;;;;;;4973740;28;20514;-75
2022/06/26 08:44:18;;;;;;;17.20;4.43;;;33.60;42.20;;;;;;4973733;28;20023;-76
2022/06/26 08:46:45;;;;;;;16.08;4.20;;;33.50;42.40;;;;;;4970698;28;20149;-74
2022/06/26 08:49:15;;;;;;;18.33;4.28;;;33.50;42.40;;;;;;4963030;28;20023;-75
2022/06/26 08:51:45;;;;;;;12.57;4.22;;;33.50;42.40;;;;;;4953808;28;20039;-78
2022/06/26 08:54:13;;;;;;;19.00;4.45;;;33.50;42.70;;;;;;4964723;28;20022;-77
2022/06/26 08:56:42;;;;;;;10.57;3.80;;;33.50;42.60;;;;;;4954074;28;20560;-75
2022/06/26 08:59:12;;;;;;;15.07;3.58;;;33.50;42.40;;;;;;4955563;28;20042;-75
2022/06/26 09:01:39;;;;;;;19.40;4.68;;;33.50;42.40;;;;;;4973183;28;20037;-77
2022/06/26 09:04:06;;;;;;;17.02;4.10;;;33.60;42.20;;;;;;4973670;28;20037;-74
2022/06/26 09:06:33;;;;;;;18.13;4.43;;;33.50;41.90;;;;;;4973788;28;20066;-71
2022/06/26 09:08:59;;;;;;;16.40;4.13;;;33.50;41.80;;;;;;4973255;28;20055;-82
2022/06/26 09:11:25;;;;;;;14.90;3.85;;;33.60;42.10;;;;;;4968677;28;20034;-78
2022/06/26 09:13:53;;;;;;;18.13;4.40;;;33.60;42.20;;;;;;4973639;28;20019;-75
2022/06/26 09:16:32;;;;;;;13.65;4.05;;;33.60;42.40;;;;;;4974619;28;20034;-77
2022/06/26 09:19:16;;;;;;;13.88;3.80;;;33.60;42.20;;;;;;4958399;28;20165;-78
2022/06/26 09:21:42;;;;;;;19.92;5.05;;;33.60;42.60;;;;;;4958184;28;20516;-82
2022/06/26 09:24:12;;;;;;;12.25;4.10;;;33.60;42.40;;;;;;4957411;28;20051;-80
2022/06/26 09:26:40;;;;;;;12.90;3.60;;;33.60;42.60;;;;;;4973673;28;20369;-82
2022/06/26 09:29:14;;;;;;;17.40;4.32;;;33.60;42.20;;;;;;4964714;28;20054;-78
2022/06/26 09:31:40;;;;;;;14.10;3.45;;;33.60;42.10;;;;;;4982389;28;20083;-78
2022/06/26 09:34:07;;;;;;;19.92;4.63;;;33.60;42.20;;;;;;4977586;28;20031;-82
2022/06/26 09:36:33;;;;;;;18.63;4.25;;;33.70;42.20;;;;;;4977489;28;20026;-83
2022/06/26 09:39:00;;;;;;;14.13;4.68;;;33.70;42.20;;;;;;4976484;28;20030;-81
2022/06/26 09:41:31;;;;;;;19.20;5.50;;;33.80;42.10;;;;;;4977553;28;20023;-80
2022/06/26 09:43:57;;;;;;;15.80;3.55;;;33.80;41.40;;;;;;4977821;28;20030;-82
2022/06/26 09:46:30;;;;;;;15.52;3.83;;;33.80;40.90;;;;;;4978332;28;20034;-80
2022/06/26 09:48:57;;;;;;;11.98;3.90;;;33.80;40.80;;;;;;4977627;28;20038;-82
2022/06/26 09:51:24;;;;;;;17.23;3.63;;;33.80;41.60;;;;;;4978130;28;20023;-81
2022/06/26 09:53:51;;;;;;;9.30;3.78;;;33.90;40.90;;;;;;4977629;28;20496;-82
2022/06/26 09:56:19;;;;;;;12.23;3.53;;;33.90;40.90;;;;;;4976089;28;20046;-82
2022/06/26 09:58:45;;;;;;;12.85;3.10;;;33.90;41.60;;;;;;4976530;28;20031;-80
2022/06/26 10:06:43;;;;;;;12.98;3.50;;;34.10;37.80;;;;;;4970148;28;20073;-80
2022/06/26 10:09:10;;;;;;;11.02;2.97;;;34.20;37.50;;;;;;4975876;28;20429;-82
2022/06/26 10:11:39;;;;;;;14.73;3.03;;;34.20;36.80;;;;;;4974460;28;20133;-82
2022/06/26 10:14:11;;;;;;;12.00;3.08;;;34.20;36.70;;;;;;4976453;28;20031;-77
2022/06/26 10:17:14;;;;;;;16.00;3.72;;;34.30;36.60;;;;;;4969262;28;20045;-80
2022/06/26 10:19:45;;;;;;;11.83;3.73;;;34.30;37.10;;;;;;4975333;28;20069;-75
2022/06/26 10:22:12;;;;;;;12.48;3.90;;;34.40;37.00;;;;;;4969942;28;20023;-77
2022/06/26 10:25:00;;;;;;;14.82;3.67;;;34.40;37.20;;;;;;4964762;28;20027;-77
2022/06/26 10:27:30;;;;;;;15.95;3.58;;;34.50;37.60;;;;;;4977239;28;20073;-76
2022/06/26 10:30:15;;;;;;;12.70;3.20;;;34.50;36.80;;;;;;4975493;28;20018;-76
2022/06/26 10:32:42;;;;;;;16.35;3.40;;;34.50;36.50;;;;;;4976696;28;20027;-83
2022/06/26 10:35:09;;;;;;;13.13;3.08;;;34.60;35.00;;;;;;4975717;28;20035;-81
2022/06/26 10:37:41;;;;;;;12.48;3.20;;;34.60;35.10;;;;;;4974404;28;20054;-76
2022/06/26 10:43:28;;;;;;;13.52;3.55;;;34.70;35.30;;;;;;4973875;28;20480;-77
2022/06/26 10:46:02;;;;;;;12.52;3.38;;;34.80;36.50;;;;;;4980024;28;20468;-75
2022/06/26 10:48:29;;;;;;;15.55;4.20;;;34.90;36.70;;;;;;4983263;28;20157;-80
2022/06/26 10:51:01;;;;;;;13.77;3.65;;;34.90;36.00;;;;;;4984032;28;20062;-75
2022/06/26 10:53:36;;;;;;;11.73;2.85;;;35.00;36.00;;;;;;4979026;28;20058;-76
2022/06/26 10:56:07;;;;;;;16.90;3.67;;;35.00;35.60;;;;;;4976298;28;20106;-76
2022/06/26 10:58:39;;;;;;;15.57;3.42;;;35.10;36.30;;;;;;4968621;28;20066;-76
2022/06/26 11:01:07;;;;;;;12.88;3.38;;;35.10;37.10;;;;;;4960430;28;20485;-78
2022/06/26 11:03:34;;;;;;;36.63;19.05;;;35.10;37.60;;;;;;4974513;28;20035;-76
2022/06/26 11:06:08;;;;;;;18.45;5.95;;;35.10;38.10;;;;;;4974171;28;20094;-76
2022/06/26 11:08:39;;;;;;;16.40;4.78;;;35.10;37.80;;;;;;4975066;28;20400;-82
2022/06/26 11:11:08;;;;;;;16.42;4.45;;;35.10;38.00;;;;;;4974414;28;20050;-75
2022/06/26 11:13:35;;;;;;;10.50;3.70;;;35.10;38.30;;;;;;4974409;28;20034;-76
2022/06/26 11:16:03;;;;;;;18.23;5.32;;;35.00;37.10;;;;;;4974450;28;20038;-81
2022/06/26 11:18:35;;;;;;;18.48;3.92;;;35.10;37.50;;;;;;4974089;28;20027;-76
2022/06/26 11:21:02;;;;;;;15.63;3.25;;;35.10;36.60;;;;;;4975171;28;20085;-77
2022/06/26 11:23:33;;;;;;;17.30;3.83;;;35.20;35.80;;;;;;4970822;28;20469;-78
2022/06/26 11:26:09;;;;;;;16.23;4.10;;;35.20;35.70;;;;;;4973490;28;20400;-79
2022/06/26 11:28:42;;;;;;;14.90;3.53;;;35.30;35.10;;;;;;4971732;28;20027;-77
2022/06/26 11:31:30;;;;;;;29.25;19.48;;;35.30;34.70;;;;;;4969699;28;20342;-80
2022/06/26 11:34:10;;;;;;;14.00;4.80;;;35.40;34.30;;;;;;4972231;28;20125;-79
2022/06/26 11:36:47;;;;;;;17.00;4.05;;;35.40;34.40;;;;;;4972801;28;20034;-85
2022/06/26 11:39:16;;;;;;;14.48;4.80;;;35.40;33.50;;;;;;4974670;28;20026;-84
2022/06/26 11:41:42;;;;;;;14.52;3.25;;;35.40;34.00;;;;;;4975197;28;20499;-84
2022/06/26 11:44:09;;;;;;;20.40;3.85;;;35.50;32.90;;;;;;4974532;28;20381;-82
2022/06/26 11:46:34;;;;;;;14.07;4.38;;;35.50;33.00;;;;;;4974231;28;20038;-79
2022/06/26 11:49:00;;;;;;;17.17;3.70;;;35.60;34.90;;;;;;4974245;28;20033;-83
2022/06/26 11:51:31;;;;;;;14.53;3.97;;;35.60;35.90;;;;;;4933898;28;1171645;-83
2022/06/26 11:53:57;;;;;;;15.80;4.15;;;35.50;37.00;;;;;;4974401;28;20034;-82
2022/06/26 11:56:24;;;;;;;14.93;3.33;;;35.50;37.30;;;;;;4972200;28;20046;-79
2022/06/26 11:58:52;;;;;;;19.10;4.20;;;35.50;37.60;;;;;;4973703;28;20015;-79
2022/06/26 12:01:19;;;;;;;11.88;3.60;;;35.50;37.90;;;;;;4974548;28;20037;-78
2022/06/26 12:03:52;;;;;;;17.73;9.13;;;35.60;38.00;;;;;;4974319;28;20035;-82
2022/06/26 12:06:35;;;;;;;14.38;3.60;;;35.70;38.20;;;;;;4974140;28;20386;-77
2022/06/26 12:09:16;;;;;;;12.55;3.70;;;35.60;38.70;;;;;;4973882;28;20023;-80
2022/06/26 12:11:43;;;;;;;15.93;4.18;;;35.60;39.40;;;;;;4973616;28;20023;-79
2022/06/26 12:14:11;;;;;;;15.60;3.42;;;35.70;38.40;;;;;;4974858;28;20454;-75
2022/06/26 12:17:00;;;;;;;15.45;3.60;;;35.70;38.30;;;;;;4974021;28;20091;-80
2022/06/26 12:19:38;;;;;;;18.38;3.70;;;35.70;38.10;;;;;;4974457;28;20026;-81
2022/06/26 12:22:04;;;;;;;15.25;3.63;;;35.70;38.10;;;;;;4974883;28;20042;-82
2022/06/26 12:24:29;;;;;;;13.00;3.53;;;35.70;38.30;;;;;;4973954;28;20050;-82
2022/06/26 12:26:57;;;;;;;13.93;3.28;;;35.70;38.30;;;;;;4974188;28;20143;-73
2022/06/26 12:29:25;;;;;;;13.48;3.67;;;35.70;38.30;;;;;;4973494;28;20038;-78
2022/06/26 12:31:51;;;;;;;11.32;3.53;;;35.60;38.50;;;;;;4973376;28;20015;-73
2022/06/26 12:34:17;;;;;;;14.55;3.53;;;35.60;38.30;;;;;;4973352;28;20035;-75
2022/06/26 12:36:43;;;;;;;12.45;3.70;;;35.60;38.20;;;;;;4973389;28;20543;-76
2022/06/26 12:39:09;;;;;;;16.17;3.63;;;35.70;37.90;;;;;;4973344;28;20435;-77
2022/06/26 12:41:37;;;;;;;16.50;4.72;;;35.70;38.00;;;;;;4973372;28;20465;-76
2022/06/26 12:44:05;;;;;;;13.77;4.03;;;35.70;38.60;;;;;;4974457;28;20031;-76
2022/06/26 12:46:32;;;;;;;18.63;3.92;;;35.70;39.10;;;;;;4974127;28;20034;-76
2022/06/26 12:48:59;;;;;;;17.92;4.70;;;35.60;38.40;;;;;;4974413;28;20146;-75
2022/06/26 12:51:25;;;;;;;11.55;3.75;;;35.50;38.90;;;;;;4974300;28;20113;-74